createdAt,value
2023-05-11T00:00:06.515Z,11.72
2023-05-11T00:00:36.686Z,11.72
2023-05-11T00:01:09.015Z,11.72
2023-05-11T00:01:40.291Z,11.72
2023-05-11T00:02:13.499Z,11.72
2023-05-11T00:02:44.361Z,11.72
2023-05-11T00:03:17.305Z,11.72
2023-05-11T00:03:48.383Z,11.72
2023-05-11T00:04:20.984Z,11.72
2023-05-11T00:04:52.226Z,11.72
2023-05-11T00:05:25.529Z,11.72
2023-05-11T00:05:56.144Z,11.72
2023-05-11T00:06:29.078Z,11.72
2023-05-11T00:07:00.300Z,11.72
2023-05-11T00:07:33.183Z,11.72
2023-05-11T00:08:04.132Z,11.72
2023-05-11T00:08:37.065Z,11.72
2023-05-11T00:09:08.126Z,11.72
2023-05-11T00:09:40.930Z,11.72
2023-05-11T00:10:12.380Z,11.72
2023-05-11T00:10:45.023Z,11.72
2023-05-11T00:11:16.207Z,11.72
2023-05-11T00:11:48.884Z,11.72
2023-05-11T00:12:20.122Z,11.72
2023-05-11T00:12:53.085Z,11.72
2023-05-11T00:13:24.326Z,11.72
2023-05-11T00:13:57.253Z,11.72
2023-05-11T00:14:28.274Z,11.72
2023-05-11T00:15:02.674Z,11.72
2023-05-11T00:15:32.390Z,11.72
2023-05-11T00:16:05.300Z,11.72
2023-05-11T00:16:36.361Z,11.72
2023-05-11T00:17:09.174Z,11.61
2023-05-11T00:17:40.259Z,11.61
2023-05-11T00:18:13.264Z,11.61
2023-05-11T00:18:44.512Z,11.61
2023-05-11T00:19:16.958Z,11.72
2023-05-11T00:19:48.250Z,11.72
2023-05-11T00:20:21.581Z,11.61
2023-05-11T00:20:52.255Z,11.61
2023-05-11T00:21:25.167Z,11.72
2023-05-11T00:21:56.366Z,11.72
2023-05-11T00:22:29.401Z,11.61
2023-05-11T00:23:00.058Z,11.61
2023-05-11T00:23:32.926Z,11.61
2023-05-11T00:24:04.125Z,11.61
2023-05-11T00:24:36.997Z,11.61
2023-05-11T00:25:08.414Z,11.61
2023-05-11T00:25:40.982Z,11.61
2023-05-11T00:26:12.153Z,11.61
2023-05-11T00:26:44.830Z,11.61
2023-05-11T00:27:16.040Z,11.61
2023-05-11T00:27:48.934Z,11.61
2023-05-11T00:28:20.286Z,11.61
2023-05-11T00:28:52.906Z,11.61
2023-05-11T00:29:24.054Z,11.61
2023-05-11T00:29:56.931Z,11.61
2023-05-11T00:30:29.483Z,11.61
2023-05-11T00:31:00.919Z,11.61
2023-05-11T00:31:32.283Z,11.61
2023-05-11T00:32:04.917Z,11.61
2023-05-11T00:32:36.262Z,11.61
2023-05-11T00:33:08.907Z,11.61
2023-05-11T00:33:40.409Z,11.61
2023-05-11T00:34:12.941Z,11.61
2023-05-11T00:34:44.301Z,11.61
2023-05-11T00:35:17.421Z,11.61
2023-05-11T00:35:48.189Z,11.61
2023-05-11T00:36:21.050Z,11.61
2023-05-11T00:36:52.345Z,11.61
2023-05-11T00:37:26.108Z,11.61
2023-05-11T00:37:56.308Z,11.61
2023-05-11T00:38:29.254Z,11.61
2023-05-11T00:39:00.452Z,11.61
2023-05-11T00:39:33.012Z,11.61
2023-05-11T00:40:04.634Z,11.61
2023-05-11T00:40:37.062Z,11.61
2023-05-11T00:41:08.454Z,11.61
2023-05-11T00:41:41.238Z,11.61
2023-05-11T00:42:12.283Z,11.61
2023-05-11T00:42:45.413Z,11.61
2023-05-11T00:43:16.040Z,11.61
2023-05-11T00:43:48.909Z,11.61
2023-05-11T00:44:20.167Z,11.61
2023-05-11T00:44:53.089Z,11.61
2023-05-11T00:45:25.147Z,11.61
2023-05-11T00:45:57.289Z,11.61
2023-05-11T00:46:28.269Z,11.61
2023-05-11T00:47:01.098Z,11.61
2023-05-11T00:47:32.283Z,11.61
2023-05-11T00:48:05.202Z,11.61
2023-05-11T00:48:36.263Z,11.61
2023-05-11T00:49:09.963Z,11.61
2023-05-11T00:49:40.169Z,11.61
2023-05-11T00:50:15.490Z,11.61
2023-05-11T00:50:44.175Z,11.61
2023-05-11T00:51:17.695Z,11.61
2023-05-11T00:51:48.200Z,11.61
2023-05-11T00:52:21.468Z,11.61
2023-05-11T00:52:52.093Z,11.61
2023-05-11T00:53:24.982Z,11.61
2023-05-11T00:53:56.294Z,11.61
2023-05-11T00:54:29.777Z,11.61
2023-05-11T00:55:00.218Z,11.61
2023-05-11T00:55:33.345Z,11.61
2023-05-11T00:56:04.183Z,11.61
2023-05-11T00:56:37.141Z,11.61
2023-05-11T00:57:08.520Z,11.61
2023-05-11T00:57:41.136Z,11.61
2023-05-11T00:58:12.283Z,11.61
2023-05-11T00:58:45.365Z,11.61
2023-05-11T00:59:16.222Z,11.61
2023-05-11T00:59:49.084Z,11.61
2023-05-11T01:00:21.536Z,11.61
2023-05-11T01:00:53.083Z,11.61
2023-05-11T01:01:24.287Z,11.61
2023-05-11T01:01:56.990Z,11.61
2023-05-11T01:02:28.251Z,11.61
2023-05-11T01:03:01.202Z,11.61
2023-05-11T01:03:32.256Z,11.61
2023-05-11T01:04:05.269Z,11.61
2023-05-11T01:04:36.247Z,11.61
2023-05-11T01:05:09.335Z,11.61
2023-05-11T01:05:40.380Z,11.61
2023-05-11T01:06:13.070Z,11.61
2023-05-11T01:06:44.469Z,11.61
2023-05-11T01:07:17.498Z,11.61
2023-05-11T01:07:48.242Z,11.61
2023-05-11T01:08:21.289Z,11.61
2023-05-11T01:08:52.428Z,11.61
2023-05-11T01:09:25.134Z,11.61
2023-05-11T01:09:56.379Z,11.61
2023-05-11T01:10:29.684Z,11.61
2023-05-11T01:11:00.374Z,11.61
2023-05-11T01:11:16.493Z,11.61
2023-05-11T01:11:48.475Z,11.61
2023-05-11T01:12:20.236Z,11.61
2023-05-11T01:12:53.323Z,11.61
2023-05-11T01:13:24.223Z,11.61
2023-05-11T01:13:56.970Z,11.61
2023-05-11T01:14:28.136Z,11.61
2023-05-11T01:15:02.465Z,11.61
2023-05-11T01:15:32.284Z,11.61
2023-05-11T01:16:05.214Z,11.61
2023-05-11T01:16:36.367Z,11.61
2023-05-11T01:17:09.325Z,11.61
2023-05-11T01:17:40.188Z,11.61
2023-05-11T01:18:12.931Z,11.61
2023-05-11T01:18:44.443Z,11.61
2023-05-11T01:19:17.123Z,11.61
2023-05-11T01:19:48.351Z,11.61
2023-05-11T01:20:22.463Z,11.61
2023-05-11T01:20:52.489Z,11.61
2023-05-11T01:21:25.037Z,11.61
2023-05-11T01:21:56.324Z,11.61
2023-05-11T01:22:29.561Z,11.61
2023-05-11T01:23:00.280Z,11.61
2023-05-11T01:23:33.117Z,11.61
2023-05-11T01:24:04.397Z,11.61
2023-05-11T01:24:37.313Z,11.61
2023-05-11T01:25:08.528Z,11.61
2023-05-11T01:25:41.301Z,11.61
2023-05-11T01:26:12.467Z,11.61
2023-05-11T01:26:45.040Z,11.61
2023-05-11T01:27:16.325Z,11.61
2023-05-11T01:27:49.389Z,11.61
2023-05-11T01:28:20.478Z,11.61
2023-05-11T01:28:53.157Z,11.61
2023-05-11T01:29:24.241Z,11.61
2023-05-11T01:29:57.313Z,11.61
2023-05-11T01:30:29.564Z,11.61
2023-05-11T01:31:01.384Z,11.61
2023-05-11T01:31:32.529Z,11.61
2023-05-11T01:32:05.355Z,11.61
2023-05-11T01:32:37.164Z,11.61
2023-05-11T01:33:09.364Z,11.61
2023-05-11T01:33:40.472Z,11.61
2023-05-11T01:34:13.160Z,11.61
2023-05-11T01:34:44.348Z,11.61
2023-05-11T01:35:17.378Z,11.61
2023-05-11T01:35:48.353Z,11.61
2023-05-11T01:36:21.279Z,11.61
2023-05-11T01:36:52.481Z,11.61
2023-05-11T01:37:25.228Z,11.61
2023-05-11T01:37:56.339Z,11.61
2023-05-11T01:38:29.324Z,11.61
2023-05-11T01:39:00.434Z,11.61
2023-05-11T01:39:33.329Z,11.61
2023-05-11T01:40:04.508Z,11.61
2023-05-11T01:40:37.247Z,11.61
2023-05-11T01:41:08.418Z,11.61
2023-05-11T01:41:41.151Z,11.61
2023-05-11T01:42:12.408Z,11.61
2023-05-11T01:42:45.412Z,11.61
2023-05-11T01:43:16.538Z,11.61
2023-05-11T01:43:49.111Z,11.61
2023-05-11T01:44:20.296Z,11.50
2023-05-11T01:44:53.335Z,11.50
2023-05-11T01:45:25.241Z,11.61
2023-05-11T01:45:57.466Z,11.61
2023-05-11T01:46:28.445Z,11.61
2023-05-11T01:47:01.172Z,11.61
2023-05-11T01:47:32.333Z,11.61
2023-05-11T01:48:05.378Z,11.61
2023-05-11T01:48:36.440Z,11.61
2023-05-11T01:49:08.984Z,11.61
2023-05-11T01:49:40.367Z,11.50
2023-05-11T01:50:13.370Z,11.50
2023-05-11T01:50:44.236Z,11.50
2023-05-11T01:51:17.291Z,11.50
2023-05-11T01:51:48.373Z,11.50
2023-05-11T01:52:21.212Z,11.50
2023-05-11T01:52:52.261Z,11.50
2023-05-11T01:53:26.349Z,11.50
2023-05-11T01:53:56.536Z,11.50
2023-05-11T01:54:29.276Z,11.50
2023-05-11T01:55:00.785Z,11.50
2023-05-11T01:55:16.441Z,11.50
2023-05-11T01:55:48.784Z,11.50
2023-05-11T01:56:20.358Z,11.50
2023-05-11T01:56:52.398Z,11.50
2023-05-11T01:57:24.221Z,11.50
2023-05-11T01:57:57.257Z,11.50
2023-05-11T01:58:28.380Z,11.50
2023-05-11T01:59:01.229Z,11.50
2023-05-11T01:59:32.268Z,11.50
2023-05-11T02:00:06.854Z,11.50
2023-05-11T02:00:36.338Z,11.38
2023-05-11T02:01:09.074Z,11.38
2023-05-11T02:01:40.428Z,11.38
2023-05-11T02:02:13.383Z,11.38
2023-05-11T02:02:44.483Z,11.38
2023-05-11T02:03:17.192Z,11.38
2023-05-11T02:03:48.437Z,11.38
2023-05-11T02:04:21.306Z,11.38
2023-05-11T02:04:52.309Z,11.38
2023-05-11T02:05:25.287Z,11.38
2023-05-11T02:05:56.348Z,11.38
2023-05-11T02:06:29.032Z,11.38
2023-05-11T02:07:00.393Z,11.38
2023-05-11T02:07:33.265Z,11.38
2023-05-11T02:08:04.369Z,11.38
2023-05-11T02:08:36.985Z,11.38
2023-05-11T02:09:08.326Z,11.38
2023-05-11T02:09:41.166Z,11.38
2023-05-11T02:10:12.510Z,11.27
2023-05-11T02:10:45.160Z,11.27
2023-05-11T02:11:16.337Z,11.27
2023-05-11T02:11:49.126Z,11.27
2023-05-11T02:12:20.340Z,11.27
2023-05-11T02:12:53.178Z,11.27
2023-05-11T02:13:24.424Z,11.27
2023-05-11T02:13:57.085Z,11.27
2023-05-11T02:14:28.339Z,11.27
2023-05-11T02:15:02.761Z,11.27
2023-05-11T02:15:32.588Z,11.27
2023-05-11T02:16:05.175Z,11.27
2023-05-11T02:16:36.357Z,11.27
2023-05-11T02:17:09.231Z,11.27
2023-05-11T02:17:40.269Z,11.27
2023-05-11T02:18:12.990Z,11.27
2023-05-11T02:18:44.538Z,11.27
2023-05-11T02:19:17.329Z,11.27
2023-05-11T02:19:48.272Z,11.27
2023-05-11T02:20:21.456Z,11.27
2023-05-11T02:20:52.459Z,11.27
2023-05-11T02:21:24.962Z,11.27
2023-05-11T02:21:56.461Z,11.27
2023-05-11T02:22:29.174Z,11.27
2023-05-11T02:23:00.481Z,11.27
2023-05-11T02:23:33.068Z,11.27
2023-05-11T02:24:04.472Z,11.22
2023-05-11T02:24:37.307Z,11.22
2023-05-11T02:25:08.377Z,11.27
2023-05-11T02:25:41.246Z,11.27
2023-05-11T02:26:12.345Z,11.22
2023-05-11T02:26:45.250Z,11.22
2023-05-11T02:27:16.381Z,11.27
2023-05-11T02:27:49.379Z,11.27
2023-05-11T02:28:20.497Z,11.22
2023-05-11T02:28:53.010Z,11.22
2023-05-11T02:29:24.286Z,11.22
2023-05-11T02:29:57.151Z,11.22
2023-05-11T02:30:29.563Z,11.22
2023-05-11T02:30:44.739Z,11.22
2023-05-11T02:31:16.505Z,11.22
2023-05-11T02:31:48.251Z,11.22
2023-05-11T02:32:20.999Z,11.22
2023-05-11T02:32:52.292Z,11.22
2023-05-11T02:33:24.808Z,11.22
2023-05-11T02:33:56.376Z,11.22
2023-05-11T02:34:29.209Z,11.22
2023-05-11T02:35:00.873Z,11.22
2023-05-11T02:35:32.976Z,11.22
2023-05-11T02:36:04.491Z,11.22
2023-05-11T02:36:37.939Z,11.22
2023-05-11T02:37:08.234Z,11.22
2023-05-11T02:37:41.234Z,11.22
2023-05-11T02:38:12.409Z,11.22
2023-05-11T02:38:45.287Z,11.22
2023-05-11T02:39:16.288Z,11.22
2023-05-11T02:39:49.135Z,11.22
2023-05-11T02:40:21.106Z,11.22
2023-05-11T02:40:53.157Z,11.22
2023-05-11T02:41:24.283Z,11.22
2023-05-11T02:41:58.017Z,11.22
2023-05-11T02:42:28.453Z,11.22
2023-05-11T02:43:00.869Z,11.22
2023-05-11T02:43:32.292Z,11.22
2023-05-11T02:44:04.850Z,11.11
2023-05-11T02:44:36.254Z,11.11
2023-05-11T02:45:10.629Z,11.11
2023-05-11T02:45:40.502Z,11.11
2023-05-11T02:46:12.883Z,11.11
2023-05-11T02:46:44.459Z,11.11
2023-05-11T02:47:17.441Z,11.11
2023-05-11T02:47:48.299Z,11.11
2023-05-11T02:48:20.947Z,11.11
2023-05-11T02:48:52.379Z,11.11
2023-05-11T02:49:25.154Z,11.11
2023-05-11T02:49:56.246Z,11.11
2023-05-11T02:50:29.649Z,11.11
2023-05-11T02:51:00.414Z,11.11
2023-05-11T02:51:32.951Z,11.11
2023-05-11T02:52:04.258Z,11.11
2023-05-11T02:52:37.114Z,11.11
2023-05-11T02:53:08.617Z,11.11
2023-05-11T02:53:40.984Z,11.11
2023-05-11T02:54:12.325Z,11.11
2023-05-11T02:54:45.369Z,11.11
2023-05-11T02:55:16.654Z,11.11
2023-05-11T02:55:49.060Z,11.11
2023-05-11T02:56:20.297Z,11.11
2023-05-11T02:56:52.982Z,11.11
2023-05-11T02:57:24.186Z,11.11
2023-05-11T02:57:57.158Z,11.11
2023-05-11T02:58:28.242Z,11.11
2023-05-11T02:59:01.064Z,11.11
2023-05-11T02:59:32.236Z,11.11
2023-05-11T03:00:06.511Z,11.11
2023-05-11T03:00:36.439Z,11.11
2023-05-11T03:01:09.194Z,11.00
2023-05-11T03:01:40.332Z,11.00
2023-05-11T03:02:13.356Z,11.00
2023-05-11T03:02:44.396Z,11.00
2023-05-11T03:03:17.391Z,11.00
2023-05-11T03:03:48.581Z,11.00
2023-05-11T03:04:21.121Z,11.00
2023-05-11T03:04:52.207Z,11.00
2023-05-11T03:05:25.376Z,11.00
2023-05-11T03:05:56.148Z,11.00
2023-05-11T03:06:29.025Z,11.00
2023-05-11T03:07:00.286Z,11.00
2023-05-11T03:07:33.338Z,11.00
2023-05-11T03:08:04.059Z,11.00
2023-05-11T03:08:39.219Z,11.00
2023-05-11T03:09:10.000Z,11.00
2023-05-11T03:09:41.772Z,11.00
2023-05-11T03:10:12.556Z,11.00
2023-05-11T03:10:44.946Z,10.88
2023-05-11T03:11:16.078Z,10.88
2023-05-11T03:11:48.974Z,10.88
2023-05-11T03:12:20.293Z,10.88
2023-05-11T03:12:53.216Z,10.88
2023-05-11T03:13:24.168Z,10.88
2023-05-11T03:13:57.020Z,10.88
2023-05-11T03:14:28.305Z,10.88
2023-05-11T03:15:02.495Z,10.88
2023-05-11T03:15:32.313Z,10.88
2023-05-11T03:16:05.081Z,10.88
2023-05-11T03:16:36.249Z,10.88
2023-05-11T03:17:09.230Z,10.88
2023-05-11T03:17:40.298Z,10.88
2023-05-11T03:18:14.108Z,10.88
2023-05-11T03:18:44.241Z,10.88
2023-05-11T03:19:16.990Z,10.88
2023-05-11T03:19:48.256Z,10.88
2023-05-11T03:20:21.519Z,10.88
2023-05-11T03:20:52.270Z,10.88
2023-05-11T03:21:27.011Z,10.88
2023-05-11T03:21:56.519Z,10.88
2023-05-11T03:22:29.248Z,10.88
2023-05-11T03:23:00.519Z,10.88
2023-05-11T03:23:16.509Z,10.88
2023-05-11T03:23:48.317Z,10.88
2023-05-11T03:24:20.463Z,10.88
2023-05-11T03:24:52.535Z,10.77
2023-05-11T03:25:24.590Z,10.77
2023-05-11T03:25:57.280Z,10.88
2023-05-11T03:26:28.441Z,10.88
2023-05-11T03:27:01.169Z,10.77
2023-05-11T03:27:32.340Z,10.77
2023-05-11T03:28:05.376Z,10.77
2023-05-11T03:28:36.381Z,10.77
2023-05-11T03:29:09.283Z,10.77
2023-05-11T03:29:40.372Z,10.77
2023-05-11T03:30:14.265Z,10.88
2023-05-11T03:30:44.393Z,10.88
2023-05-11T03:31:16.985Z,10.88
2023-05-11T03:31:51.018Z,10.88
2023-05-11T03:32:21.097Z,10.77
2023-05-11T03:32:52.207Z,10.77
2023-05-11T03:33:24.983Z,10.77
2023-05-11T03:33:56.332Z,10.77
2023-05-11T03:34:29.165Z,10.77
2023-05-11T03:35:00.801Z,10.77
2023-05-11T03:35:33.177Z,10.77
2023-05-11T03:36:04.528Z,10.77
2023-05-11T03:36:38.210Z,10.77
2023-05-11T03:37:08.368Z,10.77
2023-05-11T03:37:41.345Z,10.77
2023-05-11T03:38:12.309Z,10.77
2023-05-11T03:38:45.333Z,10.77
2023-05-11T03:39:16.417Z,10.77
2023-05-11T03:39:49.234Z,10.77
2023-05-11T03:40:20.736Z,10.77
2023-05-11T03:40:53.214Z,10.77
2023-05-11T03:41:24.499Z,10.77
2023-05-11T03:41:57.271Z,10.77
2023-05-11T03:42:28.484Z,10.77
2023-05-11T03:43:01.301Z,10.77
2023-05-11T03:43:32.432Z,10.77
2023-05-11T03:44:05.190Z,10.77
2023-05-11T03:44:36.268Z,10.77
2023-05-11T03:45:10.467Z,10.77
2023-05-11T03:45:40.375Z,10.77
2023-05-11T03:46:13.128Z,10.72
2023-05-11T03:46:44.472Z,10.72
2023-05-11T03:47:17.305Z,10.72
2023-05-11T03:47:48.450Z,10.72
2023-05-11T03:48:21.117Z,10.72
2023-05-11T03:48:52.715Z,10.72
2023-05-11T03:49:25.137Z,10.72
2023-05-11T03:49:56.467Z,10.72
2023-05-11T03:50:29.972Z,10.72
2023-05-11T03:51:00.637Z,10.72
2023-05-11T03:51:33.486Z,10.72
2023-05-11T03:52:04.840Z,10.72
2023-05-11T03:52:40.145Z,10.72
2023-05-11T03:53:08.743Z,10.72
2023-05-11T03:53:41.653Z,10.72
2023-05-11T03:54:12.850Z,10.72
2023-05-11T03:54:45.447Z,10.72
2023-05-11T03:55:16.911Z,10.72
2023-05-11T03:55:49.502Z,10.72
2023-05-11T03:56:20.715Z,10.72
2023-05-11T03:56:53.363Z,10.72
2023-05-11T03:57:24.655Z,10.72
2023-05-11T03:57:57.505Z,10.72
2023-05-11T03:58:28.587Z,10.72
2023-05-11T03:59:01.375Z,10.72
2023-05-11T03:59:32.664Z,10.72
2023-05-11T04:00:06.705Z,10.72
2023-05-11T04:00:36.569Z,10.72
2023-05-11T04:01:09.333Z,10.72
2023-05-11T04:01:40.585Z,10.72
2023-05-11T04:02:13.302Z,10.72
2023-05-11T04:02:44.640Z,10.72
2023-05-11T04:03:17.481Z,10.61
2023-05-11T04:03:48.715Z,10.61
2023-05-11T04:04:21.416Z,10.72
2023-05-11T04:04:52.535Z,10.72
2023-05-11T04:05:25.664Z,10.72
2023-05-11T04:05:56.553Z,10.72
2023-05-11T04:06:29.094Z,10.61
2023-05-11T04:07:00.492Z,10.61
2023-05-11T04:07:33.319Z,10.61
2023-05-11T04:08:04.491Z,10.61
2023-05-11T04:08:37.568Z,10.61
2023-05-11T04:09:08.595Z,10.61
2023-05-11T04:09:41.313Z,10.61
2023-05-11T04:10:12.970Z,10.61
2023-05-11T04:10:45.546Z,10.61
2023-05-11T04:11:16.530Z,10.61
2023-05-11T04:11:49.332Z,10.61
2023-05-11T04:12:20.839Z,10.61
2023-05-11T04:12:53.662Z,10.61
2023-05-11T04:13:24.645Z,10.61
2023-05-11T04:13:57.531Z,10.61
2023-05-11T04:14:28.764Z,10.61
2023-05-11T04:15:02.950Z,10.61
2023-05-11T04:15:32.711Z,10.61
2023-05-11T04:16:05.662Z,10.61
2023-05-11T04:16:36.498Z,10.61
2023-05-11T04:17:09.480Z,10.61
2023-05-11T04:17:40.619Z,10.61
2023-05-11T04:18:13.479Z,10.61
2023-05-11T04:18:44.717Z,10.61
2023-05-11T04:19:17.165Z,10.61
2023-05-11T04:19:48.400Z,10.61
2023-05-11T04:20:21.472Z,10.61
2023-05-11T04:20:52.378Z,10.61
2023-05-11T04:21:25.219Z,10.61
2023-05-11T04:21:56.557Z,10.61
2023-05-11T04:22:30.152Z,10.61
2023-05-11T04:23:00.663Z,10.61
2023-05-11T04:23:33.314Z,10.61
2023-05-11T04:24:04.549Z,10.61
2023-05-11T04:24:37.269Z,10.61
2023-05-11T04:25:08.678Z,10.61
2023-05-11T04:25:41.177Z,10.61
2023-05-11T04:26:12.537Z,10.61
2023-05-11T04:26:45.107Z,10.61
2023-05-11T04:27:16.618Z,10.61
2023-05-11T04:27:49.513Z,10.61
2023-05-11T04:28:20.473Z,10.61
2023-05-11T04:28:53.533Z,10.72
2023-05-11T04:29:24.561Z,10.72
2023-05-11T04:29:57.244Z,10.72
2023-05-11T04:30:29.876Z,10.72
2023-05-11T04:31:01.433Z,10.72
2023-05-11T04:31:32.566Z,10.72
2023-05-11T04:32:05.293Z,10.61
2023-05-11T04:32:36.744Z,10.61
2023-05-11T04:33:09.712Z,10.72
2023-05-11T04:33:40.721Z,10.72
2023-05-11T04:34:13.550Z,10.72
2023-05-11T04:34:44.726Z,10.72
2023-05-11T04:35:17.657Z,10.72
2023-05-11T04:35:48.796Z,10.72
2023-05-11T04:36:21.520Z,10.72
2023-05-11T04:36:52.740Z,10.72
2023-05-11T04:37:25.287Z,10.72
2023-05-11T04:37:56.719Z,10.72
2023-05-11T04:38:29.302Z,10.61
2023-05-11T04:39:00.505Z,10.61
2023-05-11T04:39:33.474Z,10.61
2023-05-11T04:40:04.844Z,10.61
2023-05-11T04:40:37.463Z,10.61
2023-05-11T04:41:08.624Z,10.61
2023-05-11T04:41:41.367Z,10.61
2023-05-11T04:42:12.507Z,10.61
2023-05-11T04:42:45.359Z,10.61
2023-05-11T04:43:16.560Z,10.61
2023-05-11T04:43:49.149Z,10.61
2023-05-11T04:44:20.551Z,10.61
2023-05-11T04:44:53.239Z,10.61
2023-05-11T04:45:25.641Z,10.61
2023-05-11T04:45:58.753Z,10.61
2023-05-11T04:46:28.460Z,10.61
2023-05-11T04:47:01.402Z,10.61
2023-05-11T04:47:32.619Z,10.61
2023-05-11T04:48:05.458Z,10.61
2023-05-11T04:48:36.359Z,10.61
2023-05-11T04:49:09.211Z,10.61
2023-05-11T04:49:40.452Z,10.61
2023-05-11T04:50:13.466Z,10.61
2023-05-11T04:50:44.588Z,10.61
2023-05-11T04:51:17.409Z,10.61
2023-05-11T04:51:48.682Z,10.61
2023-05-11T04:52:21.526Z,10.61
2023-05-11T04:52:52.527Z,10.61
2023-05-11T04:53:25.618Z,10.61
2023-05-11T04:53:56.472Z,10.61
2023-05-11T04:54:29.272Z,10.61
2023-05-11T04:55:00.928Z,10.61
2023-05-11T04:55:33.246Z,10.72
2023-05-11T04:56:04.525Z,10.72
2023-05-11T04:56:37.639Z,10.61
2023-05-11T04:57:08.967Z,10.61
2023-05-11T04:57:41.405Z,10.61
2023-05-11T04:58:12.594Z,10.61
2023-05-11T04:58:45.415Z,10.61
2023-05-11T04:59:16.627Z,10.61
2023-05-11T04:59:49.617Z,10.61
2023-05-11T05:00:22.527Z,10.61
2023-05-11T05:00:53.819Z,10.61
2023-05-11T05:01:24.622Z,10.61
2023-05-11T05:01:57.403Z,10.61
2023-05-11T05:02:28.737Z,10.61
2023-05-11T05:03:01.746Z,10.72
2023-05-11T05:03:32.622Z,10.72
2023-05-11T05:04:05.424Z,10.61
2023-05-11T05:04:36.724Z,10.61
2023-05-11T05:05:09.490Z,10.72
2023-05-11T05:05:40.466Z,10.72
2023-05-11T05:06:13.210Z,10.72
2023-05-11T05:06:44.502Z,10.72
2023-05-11T05:07:17.391Z,10.72
2023-05-11T05:07:48.530Z,10.72
2023-05-11T05:08:21.260Z,10.72
2023-05-11T05:08:52.341Z,10.72
2023-05-11T05:09:25.212Z,10.61
2023-05-11T05:09:56.568Z,10.61
2023-05-11T05:10:29.423Z,10.61
2023-05-11T05:11:00.450Z,10.61
2023-05-11T05:11:33.396Z,10.61
2023-05-11T05:12:04.624Z,10.61
2023-05-11T05:12:40.272Z,10.61
2023-05-11T05:13:08.565Z,10.61
2023-05-11T05:13:41.432Z,10.61
2023-05-11T05:14:12.378Z,10.61
2023-05-11T05:14:45.414Z,10.61
2023-05-11T05:15:17.416Z,10.61
2023-05-11T05:15:49.699Z,10.61
2023-05-11T05:16:20.448Z,10.61
2023-05-11T05:16:53.449Z,10.61
2023-05-11T05:17:24.810Z,10.61
2023-05-11T05:17:57.485Z,10.31
2023-05-11T05:18:28.817Z,10.61
2023-05-11T05:19:01.667Z,10.61
2023-05-11T05:19:32.783Z,10.61
2023-05-11T05:20:05.579Z,10.61
2023-05-11T05:20:36.658Z,10.61
2023-05-11T05:21:09.559Z,10.61
2023-05-11T05:21:40.600Z,10.61
2023-05-11T05:22:13.746Z,10.61
2023-05-11T05:22:44.676Z,10.61
2023-05-11T05:23:17.406Z,10.61
2023-05-11T05:23:48.540Z,10.61
2023-05-11T05:24:21.433Z,10.72
2023-05-11T05:24:52.710Z,10.72
2023-05-11T05:25:25.795Z,10.72
2023-05-11T05:25:56.588Z,10.72
2023-05-11T05:26:29.396Z,10.72
2023-05-11T05:27:00.781Z,10.72
2023-05-11T05:27:34.728Z,10.72
2023-05-11T05:28:04.560Z,10.72
2023-05-11T05:28:37.431Z,10.72
2023-05-11T05:29:08.475Z,10.72
2023-05-11T05:29:41.350Z,10.77
2023-05-11T05:30:13.530Z,10.77
2023-05-11T05:30:45.504Z,10.72
2023-05-11T05:31:16.776Z,10.72
2023-05-11T05:31:49.434Z,10.77
2023-05-11T05:32:20.566Z,10.77
2023-05-11T05:32:53.485Z,10.77
2023-05-11T05:33:24.490Z,10.77
2023-05-11T05:33:57.595Z,10.77
2023-05-11T05:34:28.810Z,10.77
2023-05-11T05:35:02.079Z,10.77
2023-05-11T05:35:32.812Z,10.77
2023-05-11T05:36:05.679Z,10.77
2023-05-11T05:36:36.667Z,10.77
2023-05-11T05:37:09.586Z,10.77
2023-05-11T05:37:40.757Z,10.77
2023-05-11T05:38:13.559Z,10.77
2023-05-11T05:38:44.564Z,10.77
2023-05-11T05:39:17.446Z,10.77
2023-05-11T05:39:48.714Z,10.77
2023-05-11T05:40:21.828Z,10.77
2023-05-11T05:40:52.719Z,10.77
2023-05-11T05:41:25.633Z,10.88
2023-05-11T05:41:56.553Z,10.54
2023-05-11T05:42:29.697Z,10.88
2023-05-11T05:43:00.719Z,10.88
2023-05-11T05:43:33.517Z,10.88
2023-05-11T05:44:04.661Z,10.46
2023-05-11T05:44:37.523Z,10.88
2023-05-11T05:45:10.593Z,10.88
2023-05-11T05:45:41.545Z,10.88
2023-05-11T05:46:12.814Z,10.88
2023-05-11T05:46:45.701Z,10.88
2023-05-11T05:47:16.653Z,10.88
2023-05-11T05:47:49.868Z,11.00
2023-05-11T05:48:20.748Z,11.00
2023-05-11T05:48:53.602Z,11.00
2023-05-11T05:49:24.635Z,11.00
2023-05-11T05:49:57.547Z,11.00
2023-05-11T05:50:29.206Z,11.00
2023-05-11T05:51:01.650Z,11.00
2023-05-11T05:51:32.724Z,11.00
2023-05-11T05:52:05.788Z,11.00
2023-05-11T05:52:36.773Z,11.00
2023-05-11T05:53:09.514Z,11.00
2023-05-11T05:53:40.710Z,11.00
2023-05-11T05:54:13.587Z,11.11
2023-05-11T05:54:44.584Z,11.11
2023-05-11T05:55:17.760Z,11.11
2023-05-11T05:55:48.727Z,11.11
2023-05-11T05:56:21.518Z,11.11
2023-05-11T05:56:52.572Z,11.11
2023-05-11T05:57:25.630Z,11.11
2023-05-11T05:57:56.920Z,11.11
2023-05-11T05:58:29.396Z,11.11
2023-05-11T05:59:00.713Z,11.11
2023-05-11T05:59:33.510Z,11.11
2023-05-11T06:00:06.340Z,11.11
2023-05-11T06:00:37.615Z,11.22
2023-05-11T06:01:08.724Z,11.22
2023-05-11T06:01:41.576Z,11.22
2023-05-11T06:02:12.713Z,11.22
2023-05-11T06:02:45.866Z,11.22
2023-05-11T06:03:16.695Z,11.22
2023-05-11T06:03:49.627Z,11.22
2023-05-11T06:04:20.608Z,11.22
2023-05-11T06:04:53.413Z,11.22
2023-05-11T06:05:24.909Z,11.22
2023-05-11T06:05:57.620Z,11.22
2023-05-11T06:06:28.700Z,11.22
2023-05-11T06:07:01.555Z,11.22
2023-05-11T06:07:32.670Z,11.22
2023-05-11T06:08:10.684Z,11.22
2023-05-11T06:08:36.708Z,11.22
2023-05-11T06:09:09.635Z,11.27
2023-05-11T06:09:40.628Z,11.27
2023-05-11T06:10:13.920Z,11.27
2023-05-11T06:10:44.740Z,11.27
2023-05-11T06:11:17.319Z,11.27
2023-05-11T06:11:48.681Z,11.27
2023-05-11T06:12:21.448Z,11.27
2023-05-11T06:12:52.659Z,11.27
2023-05-11T06:13:25.398Z,11.27
2023-05-11T06:13:56.610Z,11.27
2023-05-11T06:14:29.758Z,11.27
2023-05-11T06:15:02.173Z,11.27
2023-05-11T06:15:33.495Z,11.27
2023-05-11T06:16:04.729Z,11.27
2023-05-11T06:16:38.517Z,11.27
2023-05-11T06:17:08.643Z,11.27
2023-05-11T06:17:41.693Z,11.38
2023-05-11T06:18:12.765Z,11.38
2023-05-11T06:18:45.796Z,11.27
2023-05-11T06:19:16.648Z,11.27
2023-05-11T06:19:49.485Z,11.27
2023-05-11T06:20:21.184Z,11.27
2023-05-11T06:20:53.438Z,11.38
2023-05-11T06:21:24.644Z,11.38
2023-05-11T06:21:57.786Z,11.38
2023-05-11T06:22:28.591Z,11.38
2023-05-11T06:23:01.582Z,11.38
2023-05-11T06:23:32.787Z,11.38
2023-05-11T06:24:05.473Z,11.38
2023-05-11T06:24:36.672Z,11.38
2023-05-11T06:25:09.773Z,11.38
2023-05-11T06:25:40.880Z,11.38
2023-05-11T06:26:13.395Z,11.50
2023-05-11T06:26:44.814Z,11.50
2023-05-11T06:27:18.356Z,11.50
2023-05-11T06:27:51.314Z,11.50
2023-05-11T06:28:22.832Z,11.50
2023-05-11T06:28:53.939Z,11.50
2023-05-11T06:29:26.570Z,11.50
2023-05-11T06:29:56.728Z,11.50
2023-05-11T06:33:42.633Z,11.61
2023-05-11T06:34:12.806Z,11.61
2023-05-11T06:34:46.032Z,11.61
2023-05-11T06:35:17.136Z,11.61
2023-05-11T06:35:49.665Z,11.72
2023-05-11T06:36:22.868Z,11.72
2023-05-11T06:36:53.997Z,11.72
2023-05-11T06:37:24.983Z,11.72
2023-05-11T06:37:57.720Z,11.72
2023-05-11T06:38:28.983Z,11.72
2023-05-11T06:39:01.975Z,11.77
2023-05-11T06:39:32.971Z,11.77
2023-05-11T06:40:05.765Z,11.77
2023-05-11T06:40:37.083Z,11.77
2023-05-11T06:41:09.813Z,11.88
2023-05-11T06:41:41.579Z,11.88
2023-05-11T06:42:14.333Z,11.88
2023-05-11T06:42:47.627Z,11.88
2023-05-11T06:43:19.113Z,11.88
2023-05-11T06:43:49.094Z,11.88
2023-05-11T06:44:21.813Z,12.00
2023-05-11T06:44:53.205Z,12.00
2023-05-11T06:45:27.275Z,12.00
2023-05-11T06:45:57.130Z,12.00
2023-05-11T06:46:29.936Z,12.00
2023-05-11T06:47:00.976Z,12.00
2023-05-11T06:47:33.598Z,12.00
2023-05-11T06:48:04.889Z,12.00
2023-05-11T06:48:38.502Z,12.11
2023-05-11T06:49:08.955Z,12.11
2023-05-11T06:49:42.034Z,12.11
2023-05-11T06:50:13.163Z,12.11
2023-05-11T06:50:45.694Z,12.11
2023-05-11T06:51:17.131Z,12.11
2023-05-11T06:51:49.841Z,12.22
2023-05-11T06:52:21.066Z,12.22
2023-05-11T06:52:54.085Z,12.22
2023-05-11T06:53:25.398Z,12.22
2023-05-11T06:53:58.142Z,12.22